• Join FlightAware (Why Join?)
  • Login
  • US Flag 
12:26PM EDT


 

Airport Tracker/Info


-or-


 

Live Flight TrackerFlight Track Log ✈ N180KT ✈ 17-May-2013 ✈ KCDN - KRYY

Flight Track Log - Related Links

Times and Time Zones

All times are in EDT time to prevent confusion due to time zone crossing. See the N180KT flight status page for this flight to view local times or setup timezone preferences in your user account.

Time Position Orientation Groundspeed Altitude Reporting Facility
EDT Latitude Longitude Course Direction KTS MPH feet Rate Location/Type
05:07PM 34.2833 -80.8811 270° West  Level FlightAware Approximate
05:08PM 34.2833 -80.9284 270° West  Level FlightAware Approximate
05:09PM 34.2751 -80.9745 256° West  Level FlightAware Approximate
05:10PM 34.2651 -81.0201 241° Southwest  Level FlightAware Approximate
05:11PM 34.2459 -81.0613 241° Southwest  Level FlightAware Approximate
05:12PM 34.2267 -81.1025 241° Southwest  Level FlightAware Approximate
05:13PM 34.2075 -81.1437 241° Southwest  Level FlightAware Approximate
05:14PM 34.1883 -81.1848 241° Southwest  Level FlightAware Approximate
05:15PM 34.1691 -81.2259 241° Southwest  Level FlightAware Approximate
05:16PM 34.1498 -81.2670 237° Southwest  Level FlightAware Approximate
05:17PM 34.1287 -81.3068 237° Southwest  Level FlightAware Approximate
05:18PM 34.1075 -81.3465 237° Southwest  Level FlightAware Approximate
05:19PM 34.0864 -81.3862 237° Southwest  Level FlightAware Approximate
05:20PM 34.0652 -81.4258 237° Southwest  Level FlightAware Approximate
05:21PM 34.0440 -81.4655 237° Southwest  Level FlightAware Approximate
05:22PM 34.0229 -81.5051 237° Southwest  Level FlightAware Approximate
05:23PM 34.0040 -81.5463 243° Southwest  Level FlightAware Approximate
05:24PM 33.9861 -81.5882 243° Southwest  Level FlightAware Approximate
05:25PM 33.9681 -81.6301 243° Southwest  Level FlightAware Approximate
05:26PM 33.9502 -81.6720 243° Southwest  Level FlightAware Approximate
05:27PM 33.9322 -81.7138 243° Southwest  Level FlightAware Approximate
05:28PM 33.9341 -81.7619 273° West  Level Estimated
05:29PM 33.9360 -81.8095 273° West  Level Estimated
05:30PM 33.9378 -81.8570 273° West  Level Estimated
05:31PM 33.9397 -81.9046 273° West  Level Estimated
05:32PM 33.9415 -81.9521 273° West  Level Estimated
05:33PM 33.9433 -81.9997 273° West  Level Estimated
05:34PM 33.9450 -82.0472 273° West  Level Estimated
05:35PM 33.9468 -82.0948 273° West  Level Estimated
05:36PM 33.9485 -82.1424 273° West  Level Estimated
05:37PM 33.9502 -82.1899 273° West  Level Estimated
05:38PM 33.9519 -82.2375 272° West  Level Estimated
05:39PM 33.9536 -82.2850 272° West  Level Estimated
05:40PM 33.9553 -82.3326 272° West  Level Estimated
05:41PM 33.9569 -82.3802 272° West  Level Estimated
05:42PM 33.9585 -82.4278 272° West  Level Estimated
05:43PM 33.9602 -82.4753 272° West  Level Estimated
05:44PM 33.9618 -82.5229 272° West  Level Estimated
05:45PM 33.9633 -82.5705 272° West  Level Estimated
05:45PM 34.0333 -82.8333 272° West 153 176 8,000  Level Atlanta TRACON
05:46PM 33.9649 -82.6181 272° West  Level Estimated
05:46PM 34.0333 -82.8833 270° West 156 180 8,000  Level Atlanta TRACON
05:47PM 33.9664 -82.6656 272° West  Level Estimated
05:47PM 34.0500 -82.9333 292° West 153 176 8,000  Level Atlanta TRACON
05:48PM 33.9679 -82.7132 272° West  Level Estimated
05:49PM 33.9694 -82.7608 272° West  Level Estimated
05:49PM 34.0451 -82.9942 264° West  Level FlightAware Approximate
05:50PM 33.9709 -82.8084 272° West  Level Estimated
05:50PM 34.0500 -83.0833 264° West 154 177 8,000  Level Atlanta TRACON
05:51PM 34.0667 -83.1333 292° West 153 176 8,000 -300 Level Atlanta TRACON
05:52PM 34.0667 -83.1833 270° West 166 191 7,500 -480 Descending Atlanta TRACON
05:53PM 34.0667 -83.2500 270° West 168 193 7,100 -420 Descending Atlanta TRACON
05:54PM 34.0833 -83.3000 292° West 169 194 6,700 -480 Descending Atlanta TRACON
05:55PM 34.0833 -83.3500 270° West 172 198 6,300 -360 Descending Atlanta TRACON
05:56PM 34.0179 -83.3262 264° West  Level FlightAware Approximate
05:56PM 34.0833 -83.4167 270° West 166 191 6,000  Level Atlanta TRACON
05:57PM 34.1000 -83.4667 292° West 159 183 6,000  Level Atlanta TRACON
05:58PM 34.1000 -83.5167 270° West 160 184 6,000  Level Atlanta TRACON
05:59PM 34.1000 -83.5667 270° West 162 186 6,000  Level Atlanta TRACON
06:00PM 34.1167 -83.6167 292° West 158 182 6,000  Level Atlanta TRACON
06:01PM 34.1167 -83.6667 270° West 156 180 6,000  Level Atlanta TRACON
06:02PM 34.1167 -83.7333 270° West 156 180 6,000  Level Atlanta TRACON
06:03PM 34.1167 -83.7833 270° West 159 183 6,000  Level Atlanta TRACON
06:04PM 34.1333 -83.8333 292° West 159 183 6,000  Level Atlanta TRACON
06:05PM 34.1333 -83.8833 270° West 159 183 6,000  Level Atlanta TRACON
06:06PM 34.1333 -83.9333 270° West 153 176 6,000  Level Atlanta TRACON
06:07PM 34.1167 -83.9833 248° West 153 176 6,000 -180 Level Atlanta TRACON
06:08PM 34.1167 -84.0333 270° West 159 183 5,700 -420 Descending Atlanta TRACON
06:09PM 34.1000 -84.0833 248° West 147 169 5,300 -540 Descending Atlanta TRACON
06:10PM 34.1000 -84.1333 270° West 153 176 4,700 -540 Descending Atlanta TRACON
06:12PM 34.0833 -84.2167 256° West 138 159 3,800 -480 Descending Atlanta TRACON
06:13PM 34.0667 -84.2667 248° West 137 158 3,300 -420 Descending Atlanta TRACON
06:14PM 34.0667 -84.3000 270° West 135 155 3,000 -180 Descending Atlanta TRACON
06:15PM 34.0500 -84.3500 248° West 137 158 3,000  Level Atlanta TRACON
06:16PM 34.0500 -84.3833 270° West 132 152 3,000  Level Atlanta TRACON
06:17PM 34.0333 -84.4333 248° West 126 145 3,000 -120 Level Atlanta TRACON
06:18PM 34.0167 -84.4667 239° Southwest 132 152 2,800 -360 Descending Atlanta TRACON
06:19PM 34.0167 -84.5000 270° West 126 145 2,400 -540 Descending Atlanta TRACON
06:20PM 34.0167 -84.5333 270° West 101 116 1,800 -600 Descending Atlanta TRACON
06:22PM 34.0000 -84.5833 257° West  Level FlightAware Approximate